createdAt,value
2023-05-01T00:03:19.928Z,11.60
2023-05-01T00:05:47.505Z,11.60
2023-05-01T00:08:14.261Z,11.50
2023-05-01T00:10:40.968Z,11.60
2023-05-01T00:15:36.950Z,11.60
2023-05-01T00:18:03.789Z,11.60
2023-05-01T00:20:31.034Z,11.60
2023-05-01T00:25:24.986Z,11.70
2023-05-01T00:32:45.836Z,11.70
2023-05-01T00:37:40.250Z,11.80
2023-05-01T00:40:07.691Z,11.80
2023-05-01T00:42:39.272Z,11.80
2023-05-01T00:45:07.373Z,11.80
2023-05-01T00:47:36.025Z,11.80
2023-05-01T00:50:04.059Z,11.80
2023-05-01T00:57:25.462Z,11.80
2023-05-01T00:59:52.281Z,11.80
2023-05-01T01:02:19.021Z,11.80
2023-05-01T01:04:47.637Z,11.80
2023-05-01T01:07:50.396Z,11.80
2023-05-01T01:10:40.905Z,11.80
2023-05-01T01:13:32.991Z,11.90
2023-05-01T01:16:07.446Z,11.90
2023-05-01T01:19:17.030Z,11.80
2023-05-01T01:21:47.466Z,11.80
2023-05-01T01:24:19.761Z,11.90
2023-05-01T01:27:21.628Z,11.80
2023-05-01T01:30:25.066Z,11.90
2023-05-01T01:33:13.075Z,11.80
2023-05-01T01:35:46.577Z,11.90
2023-05-01T01:38:19.529Z,11.90
2023-05-01T01:40:48.928Z,11.90
2023-05-01T01:43:18.927Z,11.90
2023-05-01T01:45:55.674Z,11.90
2023-05-01T01:48:30.701Z,11.80
2023-05-01T01:50:59.386Z,11.90
2023-05-01T01:53:28.383Z,11.90
2023-05-01T01:55:57.370Z,11.80
2023-05-01T01:58:26.839Z,11.90
2023-05-01T02:00:55.390Z,11.70
2023-05-01T02:03:24.250Z,11.80
2023-05-01T02:05:54.510Z,11.80
2023-05-01T02:08:21.763Z,11.70
2023-05-01T02:10:50.471Z,11.80
2023-05-01T02:15:45.873Z,11.80
2023-05-01T02:18:14.549Z,11.80
2023-05-01T02:20:42.553Z,11.90
2023-05-01T02:23:10.045Z,11.90
2023-05-01T02:25:39.393Z,11.80
2023-05-01T02:28:13.755Z,11.80
2023-05-01T02:30:40.474Z,11.90
2023-05-01T02:33:08.907Z,11.90
2023-05-01T02:35:44.042Z,11.80
2023-05-01T02:38:12.731Z,11.80
2023-05-01T02:40:40.347Z,11.70
2023-05-01T02:43:13.802Z,11.80
2023-05-01T02:45:41.467Z,11.70
2023-05-01T02:48:12.183Z,11.70
2023-05-01T02:50:43.489Z,11.70
2023-05-01T02:58:05.288Z,11.70
2023-05-01T03:00:32.493Z,11.60
2023-05-01T03:05:26.838Z,11.60
2023-05-01T03:10:21.173Z,11.60
2023-05-01T03:12:47.900Z,11.60
2023-05-01T03:20:10.803Z,11.40
2023-05-01T03:25:04.984Z,11.30
2023-05-01T03:27:31.954Z,11.30
2023-05-01T03:30:03.317Z,11.30
2023-05-01T03:34:57.268Z,11.10
2023-05-01T03:37:24.702Z,11.10
2023-05-01T03:39:51.931Z,11.10
2023-05-01T03:44:45.877Z,11.00
2023-05-01T03:49:39.697Z,11.00
2023-05-01T03:54:33.535Z,10.90
2023-05-01T03:57:00.877Z,10.80
2023-05-01T03:59:27.561Z,10.80
2023-05-01T04:01:54.317Z,10.80
2023-05-01T04:04:21.110Z,10.80
2023-05-01T04:09:18.640Z,10.70
2023-05-01T04:16:40.770Z,10.70
2023-05-01T04:19:07.731Z,10.60
2023-05-01T04:26:29.328Z,10.60
2023-05-01T04:28:56.107Z,10.50
2023-05-01T04:33:50.605Z,10.50
2023-05-01T04:36:17.305Z,10.60
2023-05-01T04:38:44.199Z,10.60
2023-05-01T04:43:38.036Z,10.60
2023-05-01T04:50:59.045Z,10.60
2023-05-01T04:55:52.776Z,10.70
2023-05-01T05:00:46.629Z,10.80
2023-05-01T05:03:13.368Z,10.80
2023-05-01T05:08:07.304Z,11.00
2023-05-01T05:13:01.075Z,11.10
2023-05-01T05:15:27.781Z,11.10
2023-05-01T05:20:23.463Z,11.30
2023-05-01T05:27:44.447Z,11.50
2023-05-01T05:32:38.528Z,11.80
2023-05-01T05:35:05.734Z,11.80
2023-05-01T05:44:54.003Z,12.20
2023-05-01T05:47:20.730Z,12.30
2023-05-01T05:52:15.166Z,12.40
2023-05-01T06:04:30.877Z,12.90
2023-05-01T06:06:57.931Z,13.10
2023-05-01T06:09:25.091Z,13.20
2023-05-01T06:11:51.752Z,13.40
2023-05-01T06:14:19.020Z,13.40
2023-05-01T06:24:08.406Z,13.60
2023-05-01T06:38:50.936Z,14.30
2023-05-01T06:43:44.776Z,14.30
2023-05-01T06:46:12.478Z,14.30
2023-05-01T06:48:39.338Z,14.20
2023-05-01T06:51:06.143Z,14.20
2023-05-01T06:53:32.833Z,14.20
2023-05-01T07:03:21.372Z,14.40
2023-05-01T07:05:48.122Z,14.60
2023-05-01T07:13:09.806Z,14.80
2023-05-01T07:15:37.110Z,14.90
2023-05-01T07:18:06.168Z,15.10
2023-05-01T07:20:33.312Z,15.20
2023-05-01T07:23:00.295Z,15.30
2023-05-01T07:25:27.004Z,15.40
2023-05-01T07:30:21.625Z,15.70
2023-05-01T07:35:15.838Z,16.00
2023-05-01T07:40:10.163Z,16.30
2023-05-01T07:45:04.363Z,16.50
2023-05-01T07:47:31.124Z,16.60
2023-05-01T07:49:58.165Z,16.60
2023-05-01T07:54:52.297Z,16.40
2023-05-01T08:07:08.804Z,16.60
2023-05-01T08:12:03.975Z,16.80
2023-05-01T08:19:25.444Z,17.00
2023-05-01T08:24:19.996Z,17.10
2023-05-01T08:26:47.166Z,17.30
2023-05-01T08:34:10.007Z,17.50
2023-05-01T08:41:32.922Z,17.80
2023-05-01T08:44:03.912Z,17.90
2023-05-01T08:46:41.281Z,18.00
2023-05-01T08:49:11.435Z,18.10
2023-05-01T08:51:39.005Z,18.10
2023-05-01T08:54:08.324Z,18.20
2023-05-01T08:56:36.408Z,18.30
2023-05-01T08:59:05.220Z,18.50
2023-05-01T09:01:33.930Z,18.70
2023-05-01T09:04:04.140Z,18.80
2023-05-01T09:06:32.449Z,18.80
2023-05-01T09:08:59.927Z,19.10
2023-05-01T09:11:27.009Z,19.20
2023-05-01T09:16:21.782Z,19.40
2023-05-01T09:26:09.886Z,19.50
2023-05-01T09:28:42.253Z,19.70
2023-05-01T09:31:29.170Z,19.80
2023-05-01T09:33:59.057Z,19.70
2023-05-01T09:36:27.961Z,19.70
2023-05-01T09:38:54.884Z,19.80
2023-05-01T09:43:52.909Z,20.10
2023-05-01T09:46:20.436Z,20.20
2023-05-01T09:49:00.197Z,20.20
2023-05-01T09:51:29.412Z,19.90
2023-05-01T09:54:01.812Z,19.60
2023-05-01T09:56:31.298Z,19.40
2023-05-01T09:59:13.984Z,19.40
2023-05-01T10:01:42.812Z,19.30
2023-05-01T10:04:10.078Z,19.40
2023-05-01T10:06:38.127Z,19.50
2023-05-01T10:09:07.218Z,19.70
2023-05-01T10:11:52.011Z,20.00
2023-05-01T10:19:17.167Z,19.60
2023-05-01T10:21:44.109Z,19.80
2023-05-01T10:24:11.166Z,20.00
2023-05-01T10:36:43.504Z,20.40
2023-05-01T10:39:33.153Z,20.50
2023-05-01T10:42:11.570Z,20.70
2023-05-01T10:44:38.598Z,20.70
2023-05-01T10:47:31.670Z,20.40
2023-05-01T10:50:08.760Z,20.50
2023-05-01T10:53:11.654Z,20.20
2023-05-01T10:55:39.884Z,20.10
2023-05-01T11:00:34.391Z,20.20
2023-05-01T11:03:30.373Z,19.90
2023-05-01T11:06:00.380Z,19.80
2023-05-01T11:08:31.802Z,19.90
2023-05-01T11:10:58.508Z,19.90
2023-05-01T11:13:59.368Z,20.00
2023-05-01T11:16:38.532Z,20.70
2023-05-01T11:19:20.737Z,20.90
2023-05-01T11:24:15.163Z,21.30
2023-05-01T11:26:42.939Z,21.30
2023-05-01T11:29:10.770Z,21.10
2023-05-01T11:34:08.233Z,21.60
2023-05-01T11:36:49.425Z,21.70
2023-05-01T11:39:17.375Z,21.80
2023-05-01T11:41:44.546Z,21.50
2023-05-01T11:44:16.758Z,21.60
2023-05-01T11:49:11.621Z,21.80
2023-05-01T11:54:10.487Z,21.70
2023-05-01T11:56:38.189Z,21.70
2023-05-01T11:59:16.836Z,21.70
2023-05-01T12:01:47.458Z,21.90
2023-05-01T12:04:32.241Z,21.60
2023-05-01T12:09:27.853Z,21.90
2023-05-01T12:11:55.206Z,21.90
2023-05-01T12:14:25.606Z,22.20
2023-05-01T12:16:52.537Z,22.50
2023-05-01T12:19:20.542Z,22.70
2023-05-01T12:21:48.500Z,22.30
2023-05-01T12:24:19.089Z,22.40
2023-05-01T12:29:13.637Z,22.60
2023-05-01T12:31:48.692Z,22.60
2023-05-01T12:34:15.854Z,22.40
2023-05-01T12:36:52.162Z,22.50
2023-05-01T12:39:19.627Z,22.20
2023-05-01T12:41:50.943Z,22.40
2023-05-01T12:44:20.568Z,22.60
2023-05-01T12:46:54.692Z,22.50
2023-05-01T12:49:22.579Z,22.70
2023-05-01T12:51:50.533Z,22.80
2023-05-01T12:54:24.930Z,22.70
2023-05-01T12:56:55.062Z,22.50
2023-05-01T12:59:26.750Z,22.60
2023-05-01T13:01:59.069Z,22.50
2023-05-01T13:04:26.621Z,22.60
2023-05-01T13:06:57.186Z,22.60
2023-05-01T13:09:27.197Z,22.50
2023-05-01T13:12:12.394Z,22.70
2023-05-01T13:14:41.757Z,22.10
2023-05-01T13:17:12.283Z,22.10
2023-05-01T13:19:39.420Z,22.30
2023-05-01T13:22:06.783Z,22.00
2023-05-01T13:24:44.631Z,22.10
2023-05-01T13:27:12.506Z,21.70
2023-05-01T13:29:41.675Z,21.70
2023-05-01T13:32:11.169Z,21.80
2023-05-01T13:34:42.652Z,21.90
2023-05-01T13:37:13.846Z,22.00
2023-05-01T13:39:45.318Z,21.80
2023-05-01T13:42:13.019Z,22.00
2023-05-01T13:44:46.688Z,22.00
2023-05-01T13:47:16.665Z,22.00
2023-05-01T13:49:43.753Z,21.90
2023-05-01T13:52:17.031Z,21.80
2023-05-01T13:54:43.938Z,22.10
2023-05-01T13:57:10.776Z,22.10
2023-05-01T13:59:40.782Z,21.90
2023-05-01T14:02:20.776Z,21.90
2023-05-01T14:04:48.697Z,21.70
2023-05-01T14:07:19.070Z,21.60
2023-05-01T14:09:54.540Z,21.50
2023-05-01T14:12:27.764Z,20.80
2023-05-01T14:14:54.648Z,20.80
2023-05-01T14:17:31.874Z,20.00
2023-05-01T14:19:58.902Z,19.30
2023-05-01T14:22:29.550Z,19.10
2023-05-01T14:24:57.617Z,15.70
2023-05-01T14:27:24.459Z,18.30
2023-05-01T14:29:51.248Z,17.90
2023-05-01T14:32:17.963Z,17.50
2023-05-01T14:34:46.058Z,17.40
2023-05-01T14:37:15.101Z,17.20
2023-05-01T14:42:09.413Z,16.90
2023-05-01T14:44:39.941Z,16.60
2023-05-01T14:47:09.402Z,16.30
2023-05-01T14:49:36.099Z,15.90
2023-05-01T14:54:46.548Z,15.60
2023-05-01T14:57:13.275Z,15.30
2023-05-01T15:02:07.741Z,15.10
2023-05-01T15:07:02.397Z,14.70
2023-05-01T15:16:50.496Z,14.40
2023-05-01T15:24:12.591Z,14.30
2023-05-01T15:26:39.253Z,14.30
2023-05-01T15:31:33.531Z,14.30
2023-05-01T15:36:28.858Z,14.20
2023-05-01T15:41:22.700Z,14.20
2023-05-01T15:43:49.430Z,14.20
2023-05-01T15:46:16.276Z,14.30
2023-05-01T15:51:10.243Z,14.30
2023-05-01T16:05:52.692Z,14.30
2023-05-01T16:10:46.645Z,14.50
2023-05-01T16:13:13.404Z,14.70
2023-05-01T16:15:40.118Z,14.80
2023-05-01T16:20:39.367Z,15.10
2023-05-01T16:25:33.512Z,15.50
2023-05-01T16:30:28.162Z,15.90
2023-05-01T16:35:27.741Z,16.10
2023-05-01T16:37:55.360Z,16.00
2023-05-01T16:40:22.942Z,16.00
2023-05-01T16:42:54.067Z,16.10
2023-05-01T16:45:21.457Z,15.80
2023-05-01T16:47:48.283Z,15.80
2023-05-01T16:50:16.330Z,15.70
2023-05-01T16:55:10.203Z,15.40
2023-05-01T16:57:36.971Z,15.20
2023-05-01T17:09:53.335Z,14.70
2023-05-01T17:14:47.518Z,14.60
2023-05-01T17:17:15.202Z,14.60
2023-05-01T17:19:41.858Z,14.60
2023-05-01T17:24:36.551Z,14.50
2023-05-01T17:27:03.613Z,14.40
2023-05-01T17:29:30.625Z,14.40
2023-05-01T17:31:57.426Z,14.30
2023-05-01T17:34:24.211Z,14.30
2023-05-01T17:36:50.985Z,14.20
2023-05-01T17:49:07.446Z,14.20
2023-05-01T17:54:01.618Z,14.30
2023-05-01T17:58:55.488Z,14.10
2023-05-01T18:08:44.513Z,13.90
2023-05-01T18:11:11.241Z,13.80
2023-05-01T18:13:39.651Z,13.70
2023-05-01T18:16:06.563Z,13.70
2023-05-01T18:25:55.845Z,13.60
2023-05-01T18:28:22.723Z,13.50
2023-05-01T18:33:17.932Z,13.30
2023-05-01T18:35:44.683Z,13.30
2023-05-01T18:52:55.756Z,12.70
2023-05-01T18:57:49.492Z,12.60
2023-05-01T19:00:17.359Z,12.60
2023-05-01T19:02:51.137Z,12.60
2023-05-01T19:10:12.505Z,12.60
2023-05-01T19:15:09.368Z,12.50
2023-05-01T19:22:35.532Z,12.40
2023-05-01T19:25:02.320Z,12.40
2023-05-01T19:27:29.017Z,12.30
2023-05-01T19:29:55.799Z,12.30
2023-05-01T19:37:17.485Z,12.20
2023-05-01T19:42:11.938Z,12.10
2023-05-01T19:52:00.478Z,12.00
2023-05-01T19:59:23.119Z,12.00
2023-05-01T20:09:11.963Z,11.90
2023-05-01T20:11:38.656Z,11.90
2023-05-01T20:21:27.105Z,11.80
2023-05-01T20:26:21.629Z,11.80
2023-05-01T20:31:16.134Z,11.80
2023-05-01T20:36:10.050Z,11.80
2023-05-01T20:38:45.380Z,11.80
2023-05-01T20:46:06.461Z,11.70
2023-05-01T20:51:00.464Z,11.50
2023-05-01T20:55:54.348Z,11.40
2023-05-01T21:03:16.127Z,11.30
2023-05-01T21:05:42.993Z,11.30
2023-05-01T21:10:36.970Z,11.10
2023-05-01T21:13:04.024Z,11.00
2023-05-01T21:15:31.982Z,10.90
2023-05-01T21:20:34.835Z,10.80
2023-05-01T21:23:01.924Z,10.90
2023-05-01T21:28:02.098Z,10.80
2023-05-01T21:30:34.275Z,10.80
2023-05-01T21:33:02.899Z,10.80
2023-05-01T21:37:58.257Z,10.80
2023-05-01T21:40:25.579Z,10.70
2023-05-01T21:42:53.994Z,10.70
2023-05-01T21:45:21.423Z,10.70
2023-05-01T21:47:50.716Z,10.70
2023-05-01T21:50:19.900Z,10.70
2023-05-01T21:52:48.149Z,10.60
2023-05-01T21:55:19.527Z,10.70
2023-05-01T22:00:13.929Z,10.60
2023-05-01T22:02:42.860Z,10.60
2023-05-01T22:05:10.584Z,10.60
2023-05-01T22:07:41.654Z,10.70
2023-05-01T22:10:13.291Z,10.70
2023-05-01T22:12:40.625Z,10.60
2023-05-01T22:15:08.694Z,10.60
2023-05-01T22:17:36.427Z,10.60
2023-05-01T22:27:26.626Z,10.60
2023-05-01T22:29:53.319Z,10.60
2023-05-01T22:37:15.667Z,10.70
2023-05-01T22:39:42.573Z,10.70
2023-05-01T22:44:36.607Z,10.70
2023-05-01T22:47:03.448Z,10.70
2023-05-01T22:49:31.924Z,10.80
2023-05-01T22:51:59.680Z,10.80
2023-05-01T22:56:53.601Z,10.90
2023-05-01T22:59:21.461Z,10.90
2023-05-01T23:01:48.507Z,10.90
2023-05-01T23:06:43.336Z,10.90
2023-05-01T23:16:42.200Z,11.10
2023-05-01T23:19:18.863Z,11.00
2023-05-01T23:24:16.798Z,11.10
2023-05-01T23:26:43.687Z,11.20
2023-05-01T23:31:43.933Z,11.30
2023-05-01T23:34:15.027Z,11.30
2023-05-01T23:36:47.008Z,11.40
2023-05-01T23:39:14.203Z,11.40
2023-05-01T23:41:41.445Z,11.50
2023-05-01T23:44:08.561Z,11.50
2023-05-01T23:46:35.881Z,11.50
2023-05-01T23:51:31.420Z,11.50
2023-05-01T23:53:58.790Z,11.50
2023-05-01T23:58:53.766Z,11.50
